Date,TemperatureHighF,TemperatureAvgF,TemperatureLowF,DewpointHighF,DewpointAvgF,DewpointLowF,HumidityHigh,HumidityAvg,HumidityLow,PressureMaxIn,PressureMinIn,WindSpeedMaxMPH,WindSpeedAvgMPH,GustSpeedMaxMPH,PrecipitationSumIn
2013-3-1,61,44,25,19,12,0,46,31,21,30.07,29.97,13,6,24,0.00
2013-3-2,69,49,31,25,20,12,60,36,19,30.12,29.93,10,4,18,0.00
2013-3-3,68,50,26,24,14,1,58,30,11,29.94,29.67,14,4,24,0.00
2013-3-4,65,51,39,24,19,14,45,31,22,29.88,29.61,15,5,27,0.00
2013-3-5,62,46,25,22,14,-3,66,35,12,30.03,29.88,6,2,17,0.00
2013-3-6,67,50,37,27,18,7,41,31,24,29.92,29.73,10,2,16,0.00
2013-3-7,73,54,29,21,15,6,43,25,15,29.83,29.69,9,2,20,0.00
2013-3-8,63,45,33,44,25,6,99,56,20,29.76,29.56,14,3,23,0.08
2013-3-9,46,36,28,36,26,19,99,70,39,29.73,29.56,12,4,24,0.00
2013-3-10,55,37,22,33,23,13,99,66,28,29.88,29.72,11,3,23,0.00
2013-3-11,64,45,23,21,17,10,75,39,16,29.91,29.77,13,4,20,0.00
2013-3-12,70,51,32,27,22,16,59,36,20,29.99,29.82,12,4,21,0.00
2013-3-13,74,52,29,30,22,13,69,37,19,30.09,29.96,8,2,18,0.00
2013-3-14,82,58,35,29,20,7,55,28,14,30.08,29.95,5,2,13,0.00
2013-3-15,81,61,40,24,16,6,33,21,14,29.98,29.75,8,2,15,0.00
2013-3-16,72,58,38,35,21,8,60,28,17,29.76,29.60,14,5,26,0.00
2013-3-17,70,52,34,35,21,-7,81,41,10,29.70,29.52,17,4,31,0.00
2013-3-18,69,52,34,11,5,-6,31,19,12,29.79,29.66,14,4,24,0.00
2013-3-19,67,50,38,15,6,-3,36,21,15,29.94,29.75,11,2,20,0.00
2013-3-20,65,48,28,27,17,10,50,32,20,29.98,29.67,8,3,17,0.00
2013-3-21,72,57,44,34,20,2,53,30,10,29.68,29.48,18,6,30,0.00
2013-3-22,67,51,30,27,10,0,43,23,13,29.62,29.46,14,5,38,0.01
2013-3-23,48,38,19,25,-5,-30,52,21,10,29.82,29.52,23,9,36,0.06
2013-3-24,55,37,18,-5,-12,-26,24,15,10,29.85,29.66,14,4,25,0.00
2013-3-25,58,39,18,9,4,-8,56,27,15,29.92,29.80,13,4,23,0.00
2013-3-26,66,47,26,13,7,1,37,23,15,29.93,29.74,11,4,21,0.00
2013-3-27,74,56,36,17,9,2,33,20,12,29.85,29.75,13,3,22,0.00
2013-3-28,76,60,42,24,14,3,28,19,13,29.90,29.80,14,2,36,0.00
2013-3-29,78,60,38,24,18,9,36,24,15,29.94,29.83,9,2,17,0.00
2013-3-30,78,59,35,26,20,11,41,26,16,29.94,29.78,11,3,21,0.00
2013-3-31,77,60,42,34,27,22,51,32,21,29.90,29.76,9,2,15,0.00